createdAt,value
2023-04-14T00:03:43.601Z,8.43
2023-04-14T00:07:48.181Z,8.41
2023-04-14T00:11:51.596Z,8.38
2023-04-14T00:15:55.182Z,8.37
2023-04-14T00:19:58.566Z,8.36
2023-04-14T00:24:03.133Z,8.34
2023-04-14T00:28:07.108Z,8.33
2023-04-14T00:32:10.598Z,8.29
2023-04-14T00:36:13.916Z,8.27
2023-04-14T00:40:18.652Z,8.23
2023-04-14T00:44:23.064Z,8.22
2023-04-14T00:48:26.150Z,8.20
2023-04-14T00:52:29.525Z,8.17
2023-04-14T00:56:35.239Z,8.19
2023-04-14T01:00:39.542Z,8.16
2023-04-14T01:04:53.795Z,8.13
2023-04-14T01:08:58.271Z,8.14
2023-04-14T01:13:22.830Z,8.10
2023-04-14T01:17:34.099Z,8.08
2023-04-14T01:21:42.968Z,8.04
2023-04-14T01:26:08.792Z,8.01
2023-04-14T01:30:29.973Z,7.95
2023-04-14T01:34:39.371Z,7.82
2023-04-14T01:38:44.118Z,7.75
2023-04-14T01:42:51.651Z,7.66
2023-04-14T01:46:57.785Z,7.58
2023-04-14T01:51:04.822Z,7.48
2023-04-14T01:55:10.685Z,7.38
2023-04-14T01:59:16.042Z,7.33
2023-04-14T02:03:20.740Z,7.25
2023-04-14T02:07:27.398Z,7.21
2023-04-14T02:11:32.106Z,7.20
2023-04-14T02:15:37.492Z,7.19
2023-04-14T02:19:44.045Z,7.17
2023-04-14T02:23:49.168Z,7.16
2023-04-14T02:27:57.473Z,7.11
2023-04-14T02:32:05.010Z,7.07
2023-04-14T02:36:15.410Z,7.03
2023-04-14T02:40:26.050Z,7.02
2023-04-14T02:44:33.896Z,6.98
2023-04-14T02:48:38.552Z,6.97
2023-04-14T02:52:42.404Z,6.92
2023-04-14T02:56:48.032Z,6.89
2023-04-14T03:00:52.043Z,6.84
2023-04-14T03:04:56.574Z,6.84
2023-04-14T03:09:01.971Z,6.84
2023-04-14T03:13:09.230Z,6.84
2023-04-14T03:17:14.956Z,6.86
2023-04-14T03:21:19.921Z,6.87
2023-04-14T03:25:23.075Z,6.88
2023-04-14T03:29:30.658Z,6.88
2023-04-14T03:33:34.118Z,6.89
2023-04-14T03:37:41.663Z,6.89
2023-04-14T03:41:49.351Z,6.90
2023-04-14T03:45:54.335Z,6.92
2023-04-14T03:50:01.373Z,6.91
2023-04-14T03:54:07.695Z,6.89
2023-04-14T03:58:13.495Z,6.89
2023-04-14T04:02:21.385Z,6.87
2023-04-14T04:06:25.998Z,6.86
2023-04-14T04:10:31.760Z,6.82
2023-04-14T04:14:39.044Z,6.87
2023-04-14T04:18:50.976Z,6.91
2023-04-14T04:22:58.186Z,6.90
2023-04-14T04:27:01.720Z,6.92
2023-04-14T04:31:07.290Z,6.94
2023-04-14T04:35:13.140Z,6.96
2023-04-14T04:39:16.257Z,6.97
2023-04-14T04:43:19.644Z,7.00
2023-04-14T04:47:23.747Z,7.01
2023-04-14T04:51:29.243Z,7.02
2023-04-14T04:55:32.399Z,7.05
2023-04-14T04:59:38.356Z,7.06
2023-04-14T05:03:42.287Z,7.03
2023-04-14T05:07:46.996Z,7.04
2023-04-14T05:11:50.584Z,7.01
2023-04-14T05:15:53.951Z,7.04
2023-04-14T05:19:57.853Z,7.07
2023-04-14T05:24:02.654Z,7.08
2023-04-14T05:28:05.992Z,7.08
2023-04-14T05:32:09.862Z,7.11
2023-04-14T05:36:12.938Z,7.15
2023-04-14T05:40:18.526Z,7.15
2023-04-14T05:44:22.785Z,7.18
2023-04-14T05:48:29.485Z,7.23
2023-04-14T05:52:32.998Z,7.26
2023-04-14T05:56:38.626Z,7.35
2023-04-14T06:00:41.486Z,7.36
2023-04-14T06:04:45.230Z,7.40
2023-04-14T06:08:48.943Z,7.46
2023-04-14T06:12:53.827Z,7.48
2023-04-14T06:16:57.805Z,7.51
2023-04-14T06:21:01.623Z,7.55
2023-04-14T06:25:05.321Z,7.59
2023-04-14T06:29:10.699Z,7.64
2023-04-14T06:33:13.854Z,7.69
2023-04-14T06:37:18.126Z,7.73
2023-04-14T06:41:21.280Z,7.80
2023-04-14T06:45:26.564Z,7.88
2023-04-14T06:49:29.645Z,7.98
2023-04-14T06:53:33.564Z,8.07
2023-04-14T06:57:36.909Z,8.13
2023-04-14T07:01:43.148Z,8.22
2023-04-14T07:05:46.809Z,8.28
2023-04-14T07:09:50.447Z,8.31
2023-04-14T07:13:53.632Z,8.37
2023-04-14T07:18:00.019Z,8.43
2023-04-14T07:22:03.244Z,8.48
2023-04-14T07:26:07.666Z,8.48
2023-04-14T07:30:12.065Z,8.49
2023-04-14T07:34:18.921Z,8.44
2023-04-14T07:38:22.140Z,8.39
2023-04-14T07:42:25.473Z,8.36
2023-04-14T07:46:28.740Z,8.33
2023-04-14T07:50:33.772Z,8.30
2023-04-14T07:54:36.863Z,8.22
2023-04-14T07:58:40.762Z,8.16
2023-04-14T08:02:44.040Z,8.13
2023-04-14T08:06:49.140Z,8.09
2023-04-14T08:10:52.198Z,8.06
2023-04-14T08:14:57.348Z,8.02
2023-04-14T08:19:00.656Z,7.95
2023-04-14T08:23:07.328Z,7.88
2023-04-14T08:27:10.597Z,7.85
2023-04-14T08:31:13.970Z,7.81
2023-04-14T08:35:39.387Z,7.78
2023-04-14T08:39:42.381Z,7.71
2023-04-14T08:43:46.487Z,7.66
2023-04-14T08:47:54.588Z,7.62
2023-04-14T08:52:00.838Z,7.60
2023-04-14T08:56:09.747Z,7.59
2023-04-14T09:00:14.363Z,7.59
2023-04-14T09:04:21.084Z,7.65
2023-04-14T09:08:25.119Z,7.58
2023-04-14T09:12:32.557Z,7.58
2023-04-14T09:16:36.417Z,7.53
2023-04-14T09:20:41.598Z,7.49
2023-04-14T09:24:45.483Z,7.51
2023-04-14T09:28:50.484Z,7.51
2023-04-14T09:32:54.584Z,7.47
2023-04-14T09:37:03.850Z,7.50
2023-04-14T09:41:07.595Z,7.53
2023-04-14T09:45:13.667Z,7.57
2023-04-14T09:49:17.202Z,7.57
2023-04-14T09:53:28.064Z,7.61
2023-04-14T09:57:31.591Z,7.66
2023-04-14T10:01:36.895Z,7.67
2023-04-14T10:05:40.316Z,7.70
2023-04-14T10:09:43.799Z,7.74
2023-04-14T10:13:47.449Z,7.80
2023-04-14T10:17:52.830Z,7.86
2023-04-14T10:21:56.165Z,7.91
2023-04-14T10:26:00.304Z,7.98
2023-04-14T10:30:04.165Z,8.00
2023-04-14T10:34:14.166Z,8.13
2023-04-14T10:38:17.522Z,8.18
2023-04-14T10:42:21.291Z,8.20
2023-04-14T10:46:24.960Z,8.24
2023-04-14T10:50:32.302Z,8.33
2023-04-14T10:54:51.505Z,8.37
2023-04-14T10:58:59.692Z,8.42
2023-04-14T11:03:05.970Z,8.47
2023-04-14T11:07:11.722Z,8.55
2023-04-14T11:11:18.740Z,8.64
2023-04-14T11:15:22.578Z,8.70
2023-04-14T11:23:31.699Z,8.76
2023-04-14T11:27:35.136Z,8.75
2023-04-14T11:31:38.717Z,8.81
2023-04-14T11:35:44.269Z,8.78
2023-04-14T11:39:49.515Z,8.84
2023-04-14T11:43:53.033Z,8.88
2023-04-14T11:48:01.486Z,8.99
2023-04-14T11:52:10.561Z,9.05
2023-04-14T11:56:15.782Z,9.05
2023-04-14T12:00:19.441Z,9.12
2023-04-14T12:04:23.011Z,9.14
2023-04-14T12:08:26.168Z,9.14
2023-04-14T12:12:34.368Z,9.11
2023-04-14T12:16:38.507Z,9.11
2023-04-14T12:20:47.236Z,9.12
2023-04-14T12:24:50.681Z,9.12
2023-04-14T12:28:59.213Z,9.17
2023-04-14T12:37:09.114Z,9.15
2023-04-14T12:41:12.358Z,9.18
2023-04-14T12:45:18.405Z,9.17
2023-04-14T12:49:31.916Z,9.25
2023-04-14T12:53:38.750Z,9.25
2023-04-14T12:57:43.269Z,9.21
2023-04-14T13:01:48.079Z,9.27
2023-04-14T13:05:51.890Z,9.33
2023-04-14T13:09:55.074Z,9.31
2023-04-14T13:13:58.568Z,9.29
2023-04-14T13:18:03.117Z,9.36
2023-04-14T13:22:06.108Z,9.40
2023-04-14T13:26:10.129Z,9.41
2023-04-14T13:30:16.614Z,9.42
2023-04-14T13:34:21.009Z,9.40
2023-04-14T13:38:24.193Z,9.39
2023-04-14T13:42:27.761Z,9.38
2023-04-14T13:46:40.492Z,9.43
2023-04-14T13:50:46.741Z,9.45
2023-04-14T13:54:50.300Z,9.48
2023-04-14T13:58:55.982Z,9.43
2023-04-14T14:02:59.605Z,9.40
2023-04-14T14:07:04.608Z,9.40
2023-04-14T14:11:07.953Z,9.37
2023-04-14T14:15:12.563Z,9.41
2023-04-14T14:19:17.269Z,9.48
2023-04-14T14:23:22.474Z,9.53
2023-04-14T14:27:26.993Z,9.55
2023-04-14T14:31:30.422Z,9.54
2023-04-14T14:35:33.789Z,9.52
2023-04-14T14:39:38.572Z,9.47
2023-04-14T14:43:42.139Z,9.47
2023-04-14T14:47:48.706Z,9.43
2023-04-14T14:51:52.616Z,9.43
2023-04-14T14:55:57.227Z,9.52
2023-04-14T15:00:00.557Z,9.60
2023-04-14T15:04:08.463Z,9.75
2023-04-14T15:08:13.636Z,9.83
2023-04-14T15:12:20.361Z,9.91
2023-04-14T15:16:23.618Z,9.95
2023-04-14T15:20:26.964Z,9.99
2023-04-14T15:24:30.160Z,10.02
2023-04-14T15:28:36.129Z,10.04
2023-04-14T15:32:39.511Z,10.07
2023-04-14T15:36:43.109Z,10.03
2023-04-14T15:40:46.331Z,10.04
2023-04-14T15:44:52.264Z,10.02
2023-04-14T15:48:56.002Z,10.00
2023-04-14T15:52:59.221Z,9.99
2023-04-14T15:57:04.780Z,9.99
2023-04-14T16:01:10.610Z,9.98
2023-04-14T16:05:15.117Z,9.96
2023-04-14T16:09:18.539Z,9.98
2023-04-14T16:13:22.222Z,9.95
2023-04-14T16:17:27.047Z,9.95
2023-04-14T16:21:30.307Z,9.92
2023-04-14T16:25:35.208Z,9.89
2023-04-14T16:29:39.036Z,9.84
2023-04-14T16:33:43.961Z,9.80
2023-04-14T16:37:47.249Z,9.80
2023-04-14T16:41:51.994Z,9.75
2023-04-14T16:45:55.546Z,9.73
2023-04-14T16:50:00.798Z,9.73
2023-04-14T16:54:05.166Z,9.70
2023-04-14T16:58:10.090Z,9.70
2023-04-14T17:02:13.550Z,9.71
2023-04-14T17:06:19.296Z,9.70
2023-04-14T17:10:23.011Z,9.68
2023-04-14T17:14:27.492Z,9.67
2023-04-14T17:18:31.423Z,9.68
2023-04-14T17:22:37.559Z,9.67
2023-04-14T17:26:40.558Z,9.68
2023-04-14T17:30:44.371Z,9.65
2023-04-14T17:34:50.169Z,9.69
2023-04-14T17:38:55.188Z,9.70
2023-04-14T17:43:04.449Z,9.72
2023-04-14T17:47:13.770Z,9.71
2023-04-14T17:51:18.867Z,9.71
2023-04-14T17:55:23.928Z,9.71
2023-04-14T17:59:27.190Z,9.65
2023-04-14T18:03:31.053Z,9.66
2023-04-14T18:07:34.705Z,9.64
2023-04-14T18:11:40.341Z,9.60
2023-04-14T18:15:44.806Z,9.60
2023-04-14T18:19:48.415Z,9.58
2023-04-14T18:28:03.913Z,9.56
2023-04-14T18:32:07.384Z,9.56
2023-04-14T18:36:10.922Z,9.58
2023-04-14T18:40:16.906Z,9.61
2023-04-14T18:44:24.645Z,9.62
2023-04-14T18:48:27.705Z,9.63
2023-04-14T18:52:31.187Z,9.64
2023-04-14T18:56:35.685Z,9.65
2023-04-14T19:00:40.895Z,9.64
2023-04-14T19:04:44.968Z,9.63
2023-04-14T19:08:48.427Z,9.67
2023-04-14T19:12:51.653Z,9.67
2023-04-14T19:16:56.726Z,9.69
2023-04-14T19:21:00.192Z,9.70
2023-04-14T19:25:04.440Z,9.69
2023-04-14T19:29:10.321Z,9.66
2023-04-14T19:33:15.713Z,9.71
2023-04-14T19:37:18.900Z,9.71
2023-04-14T19:41:22.088Z,9.71
2023-04-14T19:45:25.175Z,9.72
2023-04-14T19:49:32.938Z,9.70
2023-04-14T19:53:36.542Z,9.71
2023-04-14T19:57:39.841Z,9.69
2023-04-14T20:01:45.444Z,9.72
2023-04-14T20:05:53.064Z,9.72
2023-04-14T20:09:56.440Z,9.72
2023-04-14T20:14:00.709Z,9.72
2023-04-14T20:18:09.293Z,9.73
2023-04-14T20:22:15.225Z,9.69
2023-04-14T20:26:18.285Z,9.66
2023-04-14T20:30:22.382Z,9.63
2023-04-14T20:34:25.837Z,9.61
2023-04-14T20:38:30.935Z,9.55
2023-04-14T20:42:36.103Z,9.49
2023-04-14T20:46:40.018Z,9.47
2023-04-14T20:50:44.566Z,9.43
2023-04-14T20:54:51.829Z,9.40
2023-04-14T20:58:55.055Z,9.35
2023-04-14T21:02:58.952Z,9.31
2023-04-14T21:07:02.565Z,9.30
2023-04-14T21:11:17.146Z,9.27
2023-04-14T21:15:47.056Z,9.24
2023-04-14T21:19:45.085Z,9.24
2023-04-14T21:23:49.204Z,9.25
2023-04-14T21:27:54.617Z,9.24
2023-04-14T21:31:58.492Z,9.22
2023-04-14T21:36:02.969Z,9.24
2023-04-14T21:40:10.242Z,9.26
2023-04-14T21:44:16.129Z,9.28
2023-04-14T21:48:21.124Z,9.27
2023-04-14T21:52:25.646Z,9.28
2023-04-14T21:56:29.566Z,9.29
2023-04-14T22:00:34.524Z,9.28
2023-04-14T22:04:38.657Z,9.25
2023-04-14T22:08:42.813Z,9.29
2023-04-14T22:12:48.293Z,9.26
2023-04-14T22:16:54.275Z,9.24
2023-04-14T22:20:57.452Z,9.23
2023-04-14T22:25:00.681Z,9.22
2023-04-14T22:29:04.468Z,9.23
2023-04-14T22:33:11.400Z,9.17
2023-04-14T22:37:15.093Z,9.14
2023-04-14T22:41:20.416Z,9.12
2023-04-14T22:45:23.702Z,9.12
2023-04-14T22:49:28.867Z,9.11
2023-04-14T22:53:34.630Z,9.10
2023-04-14T22:57:39.004Z,9.08
2023-04-14T23:01:42.662Z,9.10
2023-04-14T23:05:47.434Z,9.11
2023-04-14T23:09:51.993Z,9.12
2023-04-14T23:13:55.209Z,9.12
2023-04-14T23:17:59.604Z,9.17
2023-04-14T23:22:04.854Z,9.18
2023-04-14T23:26:10.012Z,9.21
2023-04-14T23:30:13.962Z,9.23
2023-04-14T23:34:17.092Z,9.24
2023-04-14T23:38:22.029Z,9.25
2023-04-14T23:42:25.511Z,9.25
2023-04-14T23:46:28.981Z,9.26
2023-04-14T23:51:01.319Z,9.28
2023-04-14T23:54:58.732Z,9.30
2023-04-14T23:59:02.513Z,9.30
